sensor_id;sensor_type;location;lat;lon;timestamp;pressure;altitude;pressure_sealevel;temperature;humidity
69060;BME280;56135;37.534;-122.308;2022-09-03T00:00:15;100935.78;;;23.70;48.77
69060;BME280;56135;37.534;-122.308;2022-09-03T00:02:48;100935.13;;;23.66;49.08
69060;BME280;56135;37.534;-122.308;2022-09-03T00:08:07;100934.22;;;23.80;48.43
69060;BME280;56135;37.534;-122.308;2022-09-03T00:16:27;100946.94;;;23.78;48.75
69060;BME280;56135;37.534;-122.308;2022-09-03T00:19:02;100950.91;;;23.72;49.32
69060;BME280;56135;37.534;-122.308;2022-09-03T00:21:46;100953.59;;;23.72;48.79
69060;BME280;56135;37.534;-122.308;2022-09-03T00:24:16;100959.00;;;23.72;48.42
69060;BME280;56135;37.534;-122.308;2022-09-03T00:26:46;100959.09;;;23.71;48.56
69060;BME280;56135;37.534;-122.308;2022-09-03T00:29:15;100962.19;;;23.64;47.86
69060;BME280;56135;37.534;-122.308;2022-09-03T00:31:52;100965.09;;;23.61;47.88
69060;BME280;56135;37.534;-122.308;2022-09-03T00:34:29;100965.28;;;23.58;47.41
69060;BME280;56135;37.534;-122.308;2022-09-03T00:36:57;100962.19;;;23.50;47.67
69060;BME280;56135;37.534;-122.308;2022-09-03T00:39:25;100968.00;;;23.44;47.92
69060;BME280;56135;37.534;-122.308;2022-09-03T00:53:26;100982.19;;;23.03;48.92
69060;BME280;56135;37.534;-122.308;2022-09-03T00:56:24;100974.94;;;22.89;49.83
69060;BME280;56135;37.534;-122.308;2022-09-03T01:30:07;100979.59;;;21.62;51.29
69060;BME280;56135;37.534;-122.308;2022-09-03T01:33:02;100990.56;;;21.57;51.68
69060;BME280;56135;37.534;-122.308;2022-09-03T01:38:26;100991.19;;;21.29;52.00
69060;BME280;56135;37.534;-122.308;2022-09-03T01:41:13;100997.16;;;21.18;52.68
69060;BME280;56135;37.534;-122.308;2022-09-03T01:46:38;100999.19;;;20.95;53.19
69060;BME280;56135;37.534;-122.308;2022-09-03T01:49:37;100995.50;;;20.80;53.87
69060;BME280;56135;37.534;-122.308;2022-09-03T01:52:28;100999.66;;;20.69;54.64
69060;BME280;56135;37.534;-122.308;2022-09-03T01:57:53;100993.81;;;20.43;55.93
69060;BME280;56135;37.534;-122.308;2022-09-03T02:00:22;100989.13;;;20.29;56.28
69060;BME280;56135;37.534;-122.308;2022-09-03T02:02:51;100990.75;;;20.14;56.48
69060;BME280;56135;37.534;-122.308;2022-09-03T02:05:26;100999.16;;;20.06;56.67
69060;BME280;56135;37.534;-122.308;2022-09-03T02:10:30;101001.22;;;19.82;57.52
69060;BME280;56135;37.534;-122.308;2022-09-03T02:13:46;101002.47;;;19.73;58.21
69060;BME280;56135;37.534;-122.308;2022-09-03T02:16:29;101005.91;;;19.58;58.94
69060;BME280;56135;37.534;-122.308;2022-09-03T02:19:08;101006.69;;;19.41;59.71
69060;BME280;56135;37.534;-122.308;2022-09-03T02:21:39;101016.88;;;19.32;59.81
69060;BME280;56135;37.534;-122.308;2022-09-03T02:24:07;101012.94;;;19.21;60.33
69060;BME280;56135;37.534;-122.308;2022-09-03T02:26:34;101017.97;;;19.08;60.92
69060;BME280;56135;37.534;-122.308;2022-09-03T02:29:01;101024.53;;;19.00;61.20
69060;BME280;56135;37.534;-122.308;2022-09-03T02:31:28;101017.19;;;18.83;61.77
69060;BME280;56135;37.534;-122.308;2022-09-03T02:33:56;101016.69;;;18.74;62.34
69060;BME280;56135;37.534;-122.308;2022-09-03T02:36:43;101018.22;;;18.59;62.59
69060;BME280;56135;37.534;-122.308;2022-09-03T02:39:14;101017.81;;;18.47;63.23
69060;BME280;56135;37.534;-122.308;2022-09-03T02:41:41;101026.25;;;18.37;63.37
69060;BME280;56135;37.534;-122.308;2022-09-03T02:46:43;101022.50;;;18.20;64.09
69060;BME280;56135;37.534;-122.308;2022-09-03T02:49:10;101014.00;;;18.09;64.63
69060;BME280;56135;37.534;-122.308;2022-09-03T02:51:39;101009.66;;;18.06;64.34
69060;BME280;56135;37.534;-122.308;2022-09-03T02:54:07;101015.38;;;17.97;64.92
69060;BME280;56135;37.534;-122.308;2022-09-03T02:56:34;101011.34;;;17.85;65.20
69060;BME280;56135;37.534;-122.308;2022-09-03T02:59:02;101019.56;;;17.80;64.94
69060;BME280;56135;37.534;-122.308;2022-09-03T03:01:47;101023.16;;;17.79;65.05
69060;BME280;56135;37.534;-122.308;2022-09-03T03:04:14;101025.31;;;17.70;65.71
69060;BME280;56135;37.534;-122.308;2022-09-03T03:06:40;101028.22;;;17.63;66.60
69060;BME280;56135;37.534;-122.308;2022-09-03T03:09:06;101040.88;;;17.58;66.14
69060;BME280;56135;37.534;-122.308;2022-09-03T03:11:33;101043.81;;;17.50;65.67
69060;BME280;56135;37.534;-122.308;2022-09-03T03:14:01;101042.25;;;17.45;65.58
69060;BME280;56135;37.534;-122.308;2022-09-03T03:16:27;101050.44;;;17.40;66.18
69060;BME280;56135;37.534;-122.308;2022-09-03T03:18:55;101052.47;;;17.33;66.75
69060;BME280;56135;37.534;-122.308;2022-09-03T03:21:21;101047.34;;;17.27;66.71
69060;BME280;56135;37.534;-122.308;2022-09-03T03:23:48;101059.13;;;17.22;67.02
69060;BME280;56135;37.534;-122.308;2022-09-03T03:26:15;101059.25;;;17.17;67.41
69060;BME280;56135;37.534;-122.308;2022-09-03T03:28:46;101068.31;;;17.13;67.24
69060;BME280;56135;37.534;-122.308;2022-09-03T03:31:20;101066.78;;;17.06;68.12
69060;BME280;56135;37.534;-122.308;2022-09-03T03:33:54;101079.41;;;17.00;68.32
69060;BME280;56135;37.534;-122.308;2022-09-03T03:36:22;101078.72;;;16.95;68.71
69060;BME280;56135;37.534;-122.308;2022-09-03T03:38:52;101081.50;;;16.91;68.35
69060;BME280;56135;37.534;-122.308;2022-09-03T03:41:21;101079.84;;;16.87;68.56
69060;BME280;56135;37.534;-122.308;2022-09-03T03:43:52;101079.19;;;16.80;69.15
69060;BME280;56135;37.534;-122.308;2022-09-03T03:46:20;101085.53;;;16.76;68.99
69060;BME280;56135;37.534;-122.308;2022-09-03T03:48:48;101086.56;;;16.72;68.98
69060;BME280;56135;37.534;-122.308;2022-09-03T03:51:14;101092.88;;;16.69;69.25
69060;BME280;56135;37.534;-122.308;2022-09-03T03:53:44;101096.63;;;16.63;69.20
69060;BME280;56135;37.534;-122.308;2022-09-03T03:56:12;101092.31;;;16.59;69.43
69060;BME280;56135;37.534;-122.308;2022-09-03T03:58:44;101104.13;;;16.50;69.70
69060;BME280;56135;37.534;-122.308;2022-09-03T04:01:13;101095.31;;;16.48;69.12
69060;BME280;56135;37.534;-122.308;2022-09-03T04:03:40;101108.63;;;16.48;69.39
69060;BME280;56135;37.534;-122.308;2022-09-03T04:06:08;101119.41;;;16.45;69.07
69060;BME280;56135;37.534;-122.308;2022-09-03T04:08:39;101118.63;;;16.42;69.53
69060;BME280;56135;37.534;-122.308;2022-09-03T04:11:42;101132.91;;;16.41;69.79
69060;BME280;56135;37.534;-122.308;2022-09-03T04:14:24;101147.09;;;16.41;69.96
69060;BME280;56135;37.534;-122.308;2022-09-03T04:17:02;101155.16;;;16.40;70.86
69060;BME280;56135;37.534;-122.308;2022-09-03T04:19:29;101157.06;;;16.34;71.15
69060;BME280;56135;37.534;-122.308;2022-09-03T04:21:58;101158.19;;;16.27;72.40
69060;BME280;56135;37.534;-122.308;2022-09-03T04:24:24;101176.13;;;16.21;72.07
69060;BME280;56135;37.534;-122.308;2022-09-03T04:27:03;101179.06;;;16.11;72.73
69060;BME280;56135;37.534;-122.308;2022-09-03T04:29:32;101181.13;;;16.01;73.04
69060;BME280;56135;37.534;-122.308;2022-09-03T04:32:01;101188.31;;;15.99;72.88
69060;BME280;56135;37.534;-122.308;2022-09-03T04:34:46;101185.94;;;15.89;74.23
69060;BME280;56135;37.534;-122.308;2022-09-03T04:37:15;101188.84;;;15.81;74.48
69060;BME280;56135;37.534;-122.308;2022-09-03T04:39:47;101188.09;;;15.74;75.26
69060;BME280;56135;37.534;-122.308;2022-09-03T04:42:15;101184.69;;;15.69;75.41
69060;BME280;56135;37.534;-122.308;2022-09-03T04:44:41;101189.31;;;15.61;75.70
69060;BME280;56135;37.534;-122.308;2022-09-03T04:47:12;101195.59;;;15.58;75.29
69060;BME280;56135;37.534;-122.308;2022-09-03T04:49:40;101190.41;;;15.54;75.94
69060;BME280;56135;37.534;-122.308;2022-09-03T04:52:06;101185.97;;;15.52;75.79
69060;BME280;56135;37.534;-122.308;2022-09-03T04:54:32;101196.69;;;15.51;75.43
69060;BME280;56135;37.534;-122.308;2022-09-03T04:56:59;101195.03;;;15.47;75.44
69060;BME280;56135;37.534;-122.308;2022-09-03T04:59:25;101193.31;;;15.44;75.74
69060;BME280;56135;37.534;-122.308;2022-09-03T05:01:51;101201.34;;;15.43;75.63
69060;BME280;56135;37.534;-122.308;2022-09-03T05:04:17;101207.66;;;15.39;75.95
69060;BME280;56135;37.534;-122.308;2022-09-03T05:06:44;101206.84;;;15.35;75.99
69060;BME280;56135;37.534;-122.308;2022-09-03T05:09:10;101206.94;;;15.30;76.30
69060;BME280;56135;37.534;-122.308;2022-09-03T05:11:36;101206.13;;;15.28;76.49
69060;BME280;56135;37.534;-122.308;2022-09-03T05:14:03;101215.03;;;15.27;76.13
69060;BME280;56135;37.534;-122.308;2022-09-03T05:16:30;101207.09;;;15.26;75.83
69060;BME280;56135;37.534;-122.308;2022-09-03T05:18:58;101205.31;;;15.25;76.19
69060;BME280;56135;37.534;-122.308;2022-09-03T05:21:25;101213.34;;;15.23;76.17
69060;BME280;56135;37.534;-122.308;2022-09-03T05:23:52;101215.25;;;15.18;76.32
69060;BME280;56135;37.534;-122.308;2022-09-03T05:26:24;101201.09;;;15.17;76.47
69060;BME280;56135;37.534;-122.308;2022-09-03T05:28:58;101187.81;;;15.16;76.71
69060;BME280;56135;37.534;-122.308;2022-09-03T05:31:27;101196.75;;;15.13;76.75
69060;BME280;56135;37.534;-122.308;2022-09-03T05:33:57;101199.44;;;15.12;76.76
69060;BME280;56135;37.534;-122.308;2022-09-03T05:36:24;101194.09;;;15.12;76.68
69060;BME280;56135;37.534;-122.308;2022-09-03T05:38:51;101195.94;;;15.10;76.52
69060;BME280;56135;37.534;-122.308;2022-09-03T05:41:22;101189.81;;;15.06;77.06
69060;BME280;56135;37.534;-122.308;2022-09-03T05:43:49;101198.75;;;15.04;77.08
69060;BME280;56135;37.534;-122.308;2022-09-03T05:46:25;101196.94;;;15.06;77.03
69060;BME280;56135;37.534;-122.308;2022-09-03T05:48:57;101188.09;;;15.04;77.09
69060;BME280;56135;37.534;-122.308;2022-09-03T05:51:24;101186.34;;;15.02;77.02
69060;BME280;56135;37.534;-122.308;2022-09-03T05:53:50;101182.00;;;14.98;76.90
69060;BME280;56135;37.534;-122.308;2022-09-03T05:56:23;101173.22;;;14.96;77.57
69060;BME280;56135;37.534;-122.308;2022-09-03T05:58:52;101170.56;;;14.96;77.04
69060;BME280;56135;37.534;-122.308;2022-09-03T06:04:05;101182.94;;;14.97;76.81
69060;BME280;56135;37.534;-122.308;2022-09-03T06:06:34;101173.13;;;14.99;75.48
69060;BME280;56135;37.534;-122.308;2022-09-03T06:09:03;101173.13;;;14.99;75.44
69060;BME280;56135;37.534;-122.308;2022-09-03T06:11:31;101182.75;;;15.05;74.67
69060;BME280;56135;37.534;-122.308;2022-09-03T06:13:59;101175.75;;;15.01;75.09
69060;BME280;56135;37.534;-122.308;2022-09-03T06:16:30;101185.63;;;14.97;74.96
69060;BME280;56135;37.534;-122.308;2022-09-03T06:18:57;101183.91;;;14.95;75.11
69060;BME280;56135;37.534;-122.308;2022-09-03T06:21:23;101184.75;;;14.95;75.29
69060;BME280;56135;37.534;-122.308;2022-09-03T06:23:51;101181.25;;;14.93;75.39
69060;BME280;56135;37.534;-122.308;2022-09-03T06:26:18;101173.25;;;14.93;75.66
69060;BME280;56135;37.534;-122.308;2022-09-03T06:28:45;101180.34;;;14.94;74.80
69060;BME280;56135;37.534;-122.308;2022-09-03T06:31:15;101188.09;;;15.04;74.50
69060;BME280;56135;37.534;-122.308;2022-09-03T06:33:42;101193.72;;;15.27;72.90
69060;BME280;56135;37.534;-122.308;2022-09-03T06:36:14;101193.00;;;15.21;72.80
69060;BME280;56135;37.534;-122.308;2022-09-03T06:38:41;101188.78;;;15.13;72.79
69060;BME280;56135;37.534;-122.308;2022-09-03T06:41:10;101192.22;;;15.17;72.14
69060;BME280;56135;37.534;-122.308;2022-09-03T06:43:38;101199.38;;;15.15;71.88
69060;BME280;56135;37.534;-122.308;2022-09-03T06:46:10;101203.06;;;15.08;72.06
69060;BME280;56135;37.534;-122.308;2022-09-03T06:48:38;101215.63;;;15.02;72.43
69060;BME280;56135;37.534;-122.308;2022-09-03T06:51:11;101212.00;;;15.07;72.64
69060;BME280;56135;37.534;-122.308;2022-09-03T06:53:40;101221.75;;;15.06;73.06
69060;BME280;56135;37.534;-122.308;2022-09-03T06:56:08;101228.91;;;15.04;74.19
69060;BME280;56135;37.534;-122.308;2022-09-03T06:58:37;101233.50;;;14.97;74.60
69060;BME280;56135;37.534;-122.308;2022-09-03T07:01:10;101247.78;;;14.92;74.20
69060;BME280;56135;37.534;-122.308;2022-09-03T07:03:37;101249.75;;;14.83;74.06
69060;BME280;56135;37.534;-122.308;2022-09-03T07:06:09;101234.78;;;14.79;74.18
69060;BME280;56135;37.534;-122.308;2022-09-03T07:08:36;101243.81;;;14.71;74.27
69060;BME280;56135;37.534;-122.308;2022-09-03T07:11:04;101243.09;;;14.62;74.76
69060;BME280;56135;37.534;-122.308;2022-09-03T07:13:34;101238.88;;;14.54;75.43
69060;BME280;56135;37.534;-122.308;2022-09-03T07:16:03;101244.28;;;14.49;75.65
69060;BME280;56135;37.534;-122.308;2022-09-03T07:18:30;101231.16;;;14.40;76.83
69060;BME280;56135;37.534;-122.308;2022-09-03T07:21:04;101233.94;;;14.35;76.83
69060;BME280;56135;37.534;-122.308;2022-09-03T07:23:32;101238.38;;;14.34;76.07
69060;BME280;56135;37.534;-122.308;2022-09-03T07:26:01;101249.00;;;14.34;76.50
69060;BME280;56135;37.534;-122.308;2022-09-03T07:28:29;101240.13;;;14.35;76.89
69060;BME280;56135;37.534;-122.308;2022-09-03T07:31:07;101246.34;;;14.34;76.72
69060;BME280;56135;37.534;-122.308;2022-09-03T07:33:34;101234.84;;;14.34;76.58
69060;BME280;56135;37.534;-122.308;2022-09-03T07:36:06;101239.31;;;14.32;76.68
69060;BME280;56135;37.534;-122.308;2022-09-03T07:38:33;101247.31;;;14.30;76.40
69060;BME280;56135;37.534;-122.308;2022-09-03T07:41:01;101247.38;;;14.27;76.76
69060;BME280;56135;37.534;-122.308;2022-09-03T07:43:32;101250.94;;;14.26;77.13
69060;BME280;56135;37.534;-122.308;2022-09-03T07:45:58;101250.06;;;14.24;77.01
69060;BME280;56135;37.534;-122.308;2022-09-03T07:48:26;101251.00;;;14.23;76.78
69060;BME280;56135;37.534;-122.308;2022-09-03T07:50:56;101243.97;;;14.21;77.13
69060;BME280;56135;37.534;-122.308;2022-09-03T07:53:24;101239.59;;;14.18;77.37
69060;BME280;56135;37.534;-122.308;2022-09-03T07:55:50;101243.13;;;14.18;77.58
69060;BME280;56135;37.534;-122.308;2022-09-03T07:58:16;101248.25;;;14.28;77.74
69060;BME280;56135;37.534;-122.308;2022-09-03T08:00:42;101243.81;;;14.28;77.40
69060;BME280;56135;37.534;-122.308;2022-09-03T08:03:09;101238.47;;;14.30;77.49
69060;BME280;56135;37.534;-122.308;2022-09-03T08:05:35;101237.53;;;14.32;77.01
69060;BME280;56135;37.534;-122.308;2022-09-03T08:08:03;101241.13;;;14.30;76.69
69060;BME280;56135;37.534;-122.308;2022-09-03T08:10:33;101235.84;;;14.28;76.57
69060;BME280;56135;37.534;-122.308;2022-09-03T08:12:59;101238.56;;;14.25;76.73
69060;BME280;56135;37.534;-122.308;2022-09-03T08:15:25;101236.00;;;14.21;76.53
69060;BME280;56135;37.534;-122.308;2022-09-03T08:18:11;101234.28;;;14.18;76.55
69060;BME280;56135;37.534;-122.308;2022-09-03T08:20:38;101242.28;;;14.15;76.41
69060;BME280;56135;37.534;-122.308;2022-09-03T08:23:04;101246.78;;;14.13;76.13
69060;BME280;56135;37.534;-122.308;2022-09-03T08:25:31;101245.97;;;14.08;76.09
69060;BME280;56135;37.534;-122.308;2022-09-03T08:27:58;101231.78;;;14.10;76.44
69060;BME280;56135;37.534;-122.308;2022-09-03T08:30:24;101232.66;;;14.09;76.15
69060;BME280;56135;37.534;-122.308;2022-09-03T08:32:52;101236.25;;;14.07;75.94
69060;BME280;56135;37.534;-122.308;2022-09-03T08:35:19;101238.09;;;14.05;75.67
69060;BME280;56135;37.534;-122.308;2022-09-03T08:37:46;101225.75;;;14.02;75.81
69060;BME280;56135;37.534;-122.308;2022-09-03T08:40:16;101237.22;;;14.02;75.89
69060;BME280;56135;37.534;-122.308;2022-09-03T08:45:16;101242.56;;;14.01;75.92
69060;BME280;56135;37.534;-122.308;2022-09-03T08:48:04;101236.28;;;14.05;76.59
69060;BME280;56135;37.534;-122.308;2022-09-03T08:50:41;101233.50;;;14.13;76.78
69060;BME280;56135;37.534;-122.308;2022-09-03T08:56:14;101240.66;;;14.08;76.47
69060;BME280;56135;37.534;-122.308;2022-09-03T08:58:45;101239.94;;;13.99;76.55
69060;BME280;56135;37.534;-122.308;2022-09-03T09:01:37;101238.22;;;13.97;76.95
69060;BME280;56135;37.534;-122.308;2022-09-03T09:04:29;101233.91;;;13.91;76.36
69060;BME280;56135;37.534;-122.308;2022-09-03T09:07:05;101242.06;;;13.80;77.08
69060;BME280;56135;37.534;-122.308;2022-09-03T09:09:49;101243.91;;;13.77;76.80
69060;BME280;56135;37.534;-122.308;2022-09-03T09:12:45;101244.88;;;13.73;76.65
69060;BME280;56135;37.534;-122.308;2022-09-03T09:15:27;101244.09;;;13.66;77.09
69060;BME280;56135;37.534;-122.308;2022-09-03T09:18:12;101237.97;;;13.62;77.28
69060;BME280;56135;37.534;-122.308;2022-09-03T09:20:50;101238.06;;;13.56;77.37
69060;BME280;56135;37.534;-122.308;2022-09-03T09:25:53;101247.06;;;13.49;77.00
69060;BME280;56135;37.534;-122.308;2022-09-03T09:28:29;101238.22;;;13.47;77.11
69060;BME280;56135;37.534;-122.308;2022-09-03T09:31:00;101238.31;;;13.42;78.65
69060;BME280;56135;37.534;-122.308;2022-09-03T09:33:29;101235.72;;;13.38;77.88
69060;BME280;56135;37.534;-122.308;2022-09-03T09:36:08;101240.19;;;13.32;77.90
69060;BME280;56135;37.534;-122.308;2022-09-03T09:38:37;101243.81;;;13.28;78.22
69060;BME280;56135;37.534;-122.308;2022-09-03T09:41:12;101248.28;;;13.26;77.98
69060;BME280;56135;37.534;-122.308;2022-09-03T09:43:39;101250.09;;;13.23;77.93
69060;BME280;56135;37.534;-122.308;2022-09-03T09:46:12;101243.97;;;13.17;78.37
69060;BME280;56135;37.534;-122.308;2022-09-03T09:48:47;101242.31;;;13.12;78.48
69060;BME280;56135;37.534;-122.308;2022-09-03T09:51:22;101249.47;;;13.07;78.66
69060;BME280;56135;37.534;-122.308;2022-09-03T09:54:00;101263.59;;;13.06;79.03
69060;BME280;56135;37.534;-122.308;2022-09-03T09:56:27;101266.31;;;13.02;78.79
69060;BME280;56135;37.534;-122.308;2022-09-03T09:59:07;101260.19;;;12.97;79.30
69060;BME280;56135;37.534;-122.308;2022-09-03T10:01:39;101246.13;;;12.92;80.12
69060;BME280;56135;37.534;-122.308;2022-09-03T10:04:10;101250.59;;;12.89;79.79
69060;BME280;56135;37.534;-122.308;2022-09-03T10:06:36;101257.72;;;12.87;79.94
69060;BME280;56135;37.534;-122.308;2022-09-03T10:09:21;101255.09;;;12.82;80.10
69060;BME280;56135;37.534;-122.308;2022-09-03T10:15:16;101235.75;;;12.75;80.93
69060;BME280;56135;37.534;-122.308;2022-09-03T10:18:33;101232.25;;;12.75;80.02
69060;BME280;56135;37.534;-122.308;2022-09-03T10:21:02;101232.28;;;12.70;80.02
69060;BME280;56135;37.534;-122.308;2022-09-03T10:26:23;101235.97;;;12.61;80.29
69060;BME280;56135;37.534;-122.308;2022-09-03T10:28:57;101225.41;;;12.57;80.99
69060;BME280;56135;37.534;-122.308;2022-09-03T10:34:28;101215.78;;;12.51;81.51
69060;BME280;56135;37.534;-122.308;2022-09-03T10:42:47;101235.25;;;12.48;81.13
69060;BME280;56135;37.534;-122.308;2022-09-03T10:48:49;101230.00;;;12.42;81.67
69060;BME280;56135;37.534;-122.308;2022-09-03T11:00:05;101246.88;;;12.37;81.84
69060;BME280;56135;37.534;-122.308;2022-09-03T11:02:45;101233.66;;;12.32;82.13
69060;BME280;56135;37.534;-122.308;2022-09-03T11:07:48;101244.28;;;12.30;81.35
69060;BME280;56135;37.534;-122.308;2022-09-03T11:10:29;101253.13;;;12.28;81.27
69060;BME280;56135;37.534;-122.308;2022-09-03T11:13:01;101251.41;;;12.25;81.17
69060;BME280;56135;37.534;-122.308;2022-09-03T11:18:30;101240.06;;;12.14;82.31
69060;BME280;56135;37.534;-122.308;2022-09-03T11:21:03;101238.31;;;12.13;81.93
69060;BME280;56135;37.534;-122.308;2022-09-03T11:23:36;101248.03;;;12.11;81.88
69060;BME280;56135;37.534;-122.308;2022-09-03T11:26:10;101244.56;;;12.07;82.26
69060;BME280;56135;37.534;-122.308;2022-09-03T11:31:23;101242.84;;;12.03;81.80
69060;BME280;56135;37.534;-122.308;2022-09-03T11:34:42;101242.84;;;12.01;82.07
69060;BME280;56135;37.534;-122.308;2022-09-03T11:37:21;101246.41;;;11.97;82.54
69060;BME280;56135;37.534;-122.308;2022-09-03T11:40:05;101251.75;;;11.93;82.16
69060;BME280;56135;37.534;-122.308;2022-09-03T11:42:41;101250.00;;;11.90;81.69
69060;BME280;56135;37.534;-122.308;2022-09-03T11:47:53;101250.06;;;11.84;82.84
69060;BME280;56135;37.534;-122.308;2022-09-03T11:52:50;101234.22;;;11.79;83.11
69060;BME280;56135;37.534;-122.308;2022-09-03T11:55:31;101235.97;;;11.79;83.35
69060;BME280;56135;37.534;-122.308;2022-09-03T11:58:10;101232.50;;;11.75;82.80
69060;BME280;56135;37.534;-122.308;2022-09-03T12:00:40;101236.91;;;11.75;82.78
69060;BME280;56135;37.534;-122.308;2022-09-03T12:03:13;101239.59;;;11.72;83.06
69060;BME280;56135;37.534;-122.308;2022-09-03T12:15:26;101234.38;;;11.62;84.57
69060;BME280;56135;37.534;-122.308;2022-09-03T12:17:47;101238.78;;;11.63;84.79
69060;BME280;56135;37.534;-122.308;2022-09-03T12:20:37;101233.50;;;11.60;84.91
69060;BME280;56135;37.534;-122.308;2022-09-03T12:23:03;101245.00;;;11.59;84.72
69060;BME280;56135;37.534;-122.308;2022-09-03T12:25:29;101246.78;;;11.56;84.47
69060;BME280;56135;37.534;-122.308;2022-09-03T12:28:00;101245.06;;;11.53;85.05
69060;BME280;56135;37.534;-122.308;2022-09-03T12:30:30;101246.81;;;11.51;86.06
69060;BME280;56135;37.534;-122.308;2022-09-03T12:33:04;101243.31;;;11.49;85.73
69060;BME280;56135;37.534;-122.308;2022-09-03T12:35:30;101240.72;;;11.46;85.70
69060;BME280;56135;37.534;-122.308;2022-09-03T12:37:56;101247.75;;;11.45;85.58
69060;BME280;56135;37.534;-122.308;2022-09-03T12:40:25;101256.59;;;11.46;85.16
69060;BME280;56135;37.534;-122.308;2022-09-03T12:42:52;101249.56;;;11.43;86.08
69060;BME280;56135;37.534;-122.308;2022-09-03T12:45:22;101253.09;;;11.41;85.35
69060;BME280;56135;37.534;-122.308;2022-09-03T12:47:49;101248.66;;;11.43;86.07
69060;BME280;56135;37.534;-122.308;2022-09-03T12:50:21;101257.47;;;11.42;85.88
69060;BME280;56135;37.534;-122.308;2022-09-03T12:52:57;101250.44;;;11.42;85.46
69060;BME280;56135;37.534;-122.308;2022-09-03T12:55:44;101254.84;;;11.42;86.10
69060;BME280;56135;37.534;-122.308;2022-09-03T12:58:18;101255.72;;;11.42;87.08
69060;BME280;56135;37.534;-122.308;2022-09-03T13:05:58;101263.72;;;11.34;87.07
69060;BME280;56135;37.534;-122.308;2022-09-03T13:08:29;101261.94;;;11.35;86.61
69060;BME280;56135;37.534;-122.308;2022-09-03T13:10:59;101256.66;;;11.35;86.56
69060;BME280;56135;37.534;-122.308;2022-09-03T13:13:35;101259.31;;;11.33;86.10
69060;BME280;56135;37.534;-122.308;2022-09-03T13:30:15;101251.44;;;11.24;88.79
69060;BME280;56135;37.534;-122.308;2022-09-03T13:35:58;101255.00;;;11.20;88.37
69060;BME280;56135;37.534;-122.308;2022-09-03T13:44:11;101275.28;;;11.21;88.29
69060;BME280;56135;37.534;-122.308;2022-09-03T13:46:47;101286.72;;;11.22;88.42
69060;BME280;56135;37.534;-122.308;2022-09-03T13:49:35;101292.00;;;11.23;88.93
69060;BME280;56135;37.534;-122.308;2022-09-03T13:53:05;101295.53;;;11.25;88.77
69060;BME280;56135;37.534;-122.308;2022-09-03T13:55:46;101298.16;;;11.25;88.97
69060;BME280;56135;37.534;-122.308;2022-09-03T13:58:30;101300.81;;;11.27;89.08
69060;BME280;56135;37.534;-122.308;2022-09-03T14:01:22;101306.97;;;11.30;88.43
69060;BME280;56135;37.534;-122.308;2022-09-03T14:04:00;101307.81;;;11.31;88.68
69060;BME280;56135;37.534;-122.308;2022-09-03T14:06:48;101305.19;;;11.34;89.27
69060;BME280;56135;37.534;-122.308;2022-09-03T14:09:19;101309.56;;;11.37;89.33
69060;BME280;56135;37.534;-122.308;2022-09-03T14:17:58;101302.38;;;11.51;88.71
69060;BME280;56135;37.534;-122.308;2022-09-03T14:26:17;101303.09;;;11.73;89.57
69060;BME280;56135;37.534;-122.308;2022-09-03T14:28:48;101299.47;;;11.83;89.66
69060;BME280;56135;37.534;-122.308;2022-09-03T14:39:33;101302.34;;;12.52;89.50
69060;BME280;56135;37.534;-122.308;2022-09-03T14:42:17;101310.91;;;12.73;89.98
69060;BME280;56135;37.534;-122.308;2022-09-03T14:45:14;101302.75;;;12.88;89.36
69060;BME280;56135;37.534;-122.308;2022-09-03T14:59:43;101309.69;;;14.11;83.53
69060;BME280;56135;37.534;-122.308;2022-09-03T15:10:54;101313.31;;;14.97;80.74
69060;BME280;56135;37.534;-122.308;2022-09-03T15:30:36;101312.84;;;18.75;67.15
69060;BME280;56135;37.534;-122.308;2022-09-03T15:36:08;101316.91;;;19.31;63.02
69060;BME280;56135;37.534;-122.308;2022-09-03T15:39:05;101313.31;;;19.54;62.12
69060;BME280;56135;37.534;-122.308;2022-09-03T15:41:47;101315.84;;;20.02;62.42
69060;BME280;56135;37.534;-122.308;2022-09-03T15:44:17;101305.06;;;20.43;60.88
69060;BME280;56135;37.534;-122.308;2022-09-03T15:46:49;101312.69;;;20.73;58.98
69060;BME280;56135;37.534;-122.308;2022-09-03T15:52:31;101308.25;;;21.29;57.43
69060;BME280;56135;37.534;-122.308;2022-09-03T15:57:53;101300.91;;;22.22;53.60
69060;BME280;56135;37.534;-122.308;2022-09-03T16:00:59;101299.09;;;23.05;52.62
69060;BME280;56135;37.534;-122.308;2022-09-03T16:06:58;101301.63;;;23.71;50.00
69060;BME280;56135;37.534;-122.308;2022-09-03T16:09:55;101296.94;;;24.05;48.34
69060;BME280;56135;37.534;-122.308;2022-09-03T16:12:39;101294.09;;;24.37;48.31
69060;BME280;56135;37.534;-122.308;2022-09-03T16:15:18;101296.13;;;24.76;47.14
69060;BME280;56135;37.534;-122.308;2022-09-03T16:20:51;101285.97;;;25.76;44.38
69060;BME280;56135;37.534;-122.308;2022-09-03T16:23:35;101294.19;;;25.75;43.35
69060;BME280;56135;37.534;-122.308;2022-09-03T16:26:40;101284.91;;;25.92;44.10
69060;BME280;56135;37.534;-122.308;2022-09-03T16:29:14;101284.38;;;25.87;43.40
69060;BME280;56135;37.534;-122.308;2022-09-03T16:40:47;101272.16;;;27.57;40.45
69060;BME280;56135;37.534;-122.308;2022-09-03T16:46:15;101284.59;;;28.76;38.70
69060;BME280;56135;37.534;-122.308;2022-09-03T16:52:02;101272.22;;;30.13;35.66